createdAt,value
2019-03-13T00:02:35.893Z,89.00
2019-03-13T00:05:07.110Z,89.50
2019-03-13T00:07:36.961Z,90.60
2019-03-13T00:10:07.458Z,90.80
2019-03-13T00:12:37.266Z,91.10
2019-03-13T00:15:08.563Z,91.50
2019-03-13T00:17:38.573Z,90.00
2019-03-13T00:20:09.046Z,90.00
2019-03-13T00:22:38.966Z,89.40
2019-03-13T00:25:09.451Z,89.40
2019-03-13T00:27:39.771Z,89.60
2019-03-13T00:30:10.648Z,89.30
2019-03-13T00:32:40.516Z,88.40
2019-03-13T00:35:10.745Z,89.30
2019-03-13T00:37:40.604Z,87.30
2019-03-13T00:40:11.271Z,89.00
2019-03-13T00:42:41.454Z,87.60
2019-03-13T00:45:11.515Z,87.30
2019-03-13T00:47:41.642Z,87.40
2019-03-13T00:50:21.238Z,86.30
2019-03-13T00:52:51.863Z,87.40
2019-03-13T00:55:21.713Z,88.80
2019-03-13T00:57:51.712Z,90.30
2019-03-13T01:00:42.124Z,90.30
2019-03-13T01:03:26.463Z,91.50
2019-03-13T01:06:01.162Z,91.90
2019-03-13T01:08:30.990Z,90.70
2019-03-13T01:11:00.767Z,91.30
2019-03-13T01:13:30.747Z,91.00
2019-03-13T01:16:00.560Z,91.10
2019-03-13T01:18:30.394Z,91.50
2019-03-13T01:21:00.152Z,90.90
2019-03-13T01:23:30.358Z,86.50
2019-03-13T01:26:00.182Z,82.80
2019-03-13T01:28:30.787Z,80.70
2019-03-13T01:31:09.053Z,79.50
2019-03-13T01:33:39.019Z,78.90
2019-03-13T01:36:09.258Z,79.90
2019-03-13T01:38:39.112Z,80.20
2019-03-13T01:41:09.399Z,81.70
2019-03-13T01:43:39.428Z,82.60
2019-03-13T01:46:09.761Z,83.50
2019-03-13T01:48:39.626Z,83.80
2019-03-13T01:51:09.550Z,84.40
2019-03-13T01:53:39.929Z,83.90
2019-03-13T01:56:09.976Z,83.10
2019-03-13T01:58:40.216Z,83.40
2019-03-13T02:01:10.263Z,83.50
2019-03-13T02:03:40.230Z,82.00
2019-03-13T02:06:09.914Z,82.40
2019-03-13T02:08:40.069Z,83.30
2019-03-13T02:11:10.201Z,83.00
2019-03-13T02:13:40.045Z,83.30
2019-03-13T02:16:09.942Z,83.90
2019-03-13T02:18:39.792Z,84.00
2019-03-13T02:21:09.857Z,83.70
2019-03-13T02:23:39.654Z,85.90
2019-03-13T02:26:09.873Z,86.40
2019-03-13T02:28:39.643Z,87.60
2019-03-13T02:31:09.378Z,88.00
2019-03-13T02:33:39.615Z,88.90
2019-03-13T02:36:09.448Z,90.10
2019-03-13T02:38:39.572Z,90.10
2019-03-13T02:41:09.400Z,90.60
2019-03-13T02:43:39.337Z,91.00
2019-03-13T02:46:09.466Z,91.50
2019-03-13T02:48:39.726Z,92.00
2019-03-13T02:51:09.972Z,92.70
2019-03-13T02:53:39.961Z,93.10
2019-03-13T02:56:10.650Z,94.00
2019-03-13T02:58:40.582Z,94.40
2019-03-13T03:01:35.465Z,95.10
2019-03-13T03:04:07.495Z,95.90
2019-03-13T03:06:37.691Z,97.00
2019-03-13T03:09:09.169Z,98.70
2019-03-13T03:11:39.130Z,99.90
2019-03-13T03:14:08.977Z,99.90
2019-03-13T03:16:38.887Z,99.90
2019-03-13T03:19:08.769Z,99.90
2019-03-13T03:21:38.636Z,99.90
2019-03-13T03:24:08.883Z,99.90
2019-03-13T03:26:38.677Z,99.90
2019-03-13T03:29:08.532Z,99.90
2019-03-13T03:31:38.405Z,99.90
2019-03-13T03:34:08.202Z,99.90
2019-03-13T03:36:38.468Z,99.90
2019-03-13T03:39:09.931Z,99.90
2019-03-13T03:41:39.833Z,99.90
2019-03-13T03:44:10.595Z,99.90
2019-03-13T03:46:40.376Z,99.90
2019-03-13T03:49:10.161Z,99.90
2019-03-13T03:51:40.699Z,99.90
2019-03-13T03:54:10.565Z,99.90
2019-03-13T03:56:40.428Z,99.90
2019-03-13T03:59:10.737Z,99.90
2019-03-13T04:01:41.561Z,99.90
2019-03-13T04:04:11.373Z,99.90
2019-03-13T04:06:41.546Z,99.90
2019-03-13T04:09:11.400Z,99.90
2019-03-13T04:11:41.234Z,99.90
2019-03-13T04:14:11.036Z,99.90
2019-03-13T04:16:40.859Z,99.90
2019-03-13T04:19:10.812Z,99.90
2019-03-13T04:21:40.568Z,99.90
2019-03-13T04:24:10.385Z,99.90
2019-03-13T04:26:40.511Z,99.90
2019-03-13T04:29:10.320Z,99.90
2019-03-13T04:31:40.451Z,99.90
2019-03-13T04:34:10.235Z,99.90
2019-03-13T04:36:40.106Z,99.90
2019-03-13T04:39:09.924Z,99.90
2019-03-13T04:41:39.805Z,99.90
2019-03-13T04:44:10.038Z,99.90
2019-03-13T04:46:39.823Z,99.90
2019-03-13T04:49:10.107Z,99.90
2019-03-13T04:51:39.984Z,99.90
2019-03-13T04:54:10.265Z,99.90
2019-03-13T04:56:40.099Z,99.90
2019-03-13T04:59:10.274Z,99.90
2019-03-13T05:01:40.090Z,99.90
2019-03-13T05:04:09.965Z,99.90
2019-03-13T05:06:39.817Z,99.90
2019-03-13T05:09:11.862Z,99.90
2019-03-13T05:11:42.022Z,99.90
2019-03-13T05:14:11.765Z,99.90
2019-03-13T05:16:41.684Z,99.90
2019-03-13T05:19:12.377Z,99.90
2019-03-13T05:21:42.138Z,99.90
2019-03-13T05:24:12.032Z,99.90
2019-03-13T05:26:42.697Z,99.90
2019-03-13T05:29:12.817Z,99.90
2019-03-13T05:31:42.630Z,99.90
2019-03-13T05:34:12.431Z,99.90
2019-03-13T05:36:42.710Z,99.90
2019-03-13T05:39:12.547Z,99.90
2019-03-13T05:41:42.826Z,99.90
2019-03-13T05:44:12.617Z,99.90
2019-03-13T05:46:42.691Z,99.90
2019-03-13T05:49:12.951Z,99.90
2019-03-13T05:51:42.842Z,99.90
2019-03-13T05:54:12.666Z,99.90
2019-03-13T05:56:42.564Z,99.90
2019-03-13T05:59:12.368Z,99.90
2019-03-13T06:01:42.271Z,99.90
2019-03-13T06:04:12.198Z,99.90
2019-03-13T06:06:42.010Z,99.90
2019-03-13T06:09:11.834Z,99.90
2019-03-13T06:11:42.034Z,99.90
2019-03-13T06:14:13.119Z,99.90
2019-03-13T06:16:42.906Z,99.90
2019-03-13T06:19:13.104Z,99.90
2019-03-13T06:21:42.923Z,99.90
2019-03-13T06:24:13.134Z,99.90
2019-03-13T06:26:42.920Z,99.90
2019-03-13T06:29:13.067Z,99.90
2019-03-13T06:31:43.012Z,99.90
2019-03-13T06:34:13.250Z,99.90
2019-03-13T06:36:43.124Z,99.90
2019-03-13T06:39:13.382Z,99.90
2019-03-13T06:41:43.159Z,99.90
2019-03-13T06:44:12.978Z,99.90
2019-03-13T06:46:42.786Z,99.90
2019-03-13T06:49:12.613Z,99.90
2019-03-13T06:51:43.007Z,99.90
2019-03-13T06:54:13.139Z,99.90
2019-03-13T06:56:42.979Z,99.90
2019-03-13T06:59:34.377Z,99.90
2019-03-13T07:02:28.897Z,99.90
2019-03-13T07:05:03.222Z,99.90
2019-03-13T07:08:10.206Z,99.90
2019-03-13T07:10:59.212Z,99.90
2019-03-13T07:13:47.933Z,99.90
2019-03-13T07:16:36.605Z,99.90
2019-03-13T07:19:23.892Z,99.90
2019-03-13T07:22:02.976Z,99.90
2019-03-13T07:24:48.663Z,99.90
2019-03-13T07:27:24.943Z,99.90
2019-03-13T07:30:15.423Z,99.90
2019-03-13T07:32:56.801Z,99.90
2019-03-13T07:35:39.118Z,99.90
2019-03-13T07:38:28.000Z,99.90
2019-03-13T07:41:25.539Z,99.90
2019-03-13T07:44:17.170Z,99.90
2019-03-13T07:47:05.003Z,99.90
2019-03-13T07:49:53.942Z,99.90
2019-03-13T07:52:55.001Z,99.90
2019-03-13T07:55:52.906Z,99.90
2019-03-13T07:58:44.384Z,99.90
2019-03-13T08:01:28.225Z,99.90
2019-03-13T08:04:19.976Z,99.90
2019-03-13T08:07:03.105Z,99.90
2019-03-13T08:09:51.622Z,99.90
2019-03-13T08:12:39.434Z,99.90
2019-03-13T08:15:22.763Z,99.90
2019-03-13T08:18:17.272Z,99.90
2019-03-13T08:20:59.090Z,99.90
2019-03-13T08:23:46.352Z,99.90
2019-03-13T08:26:37.769Z,99.90
2019-03-13T08:29:17.235Z,99.90
2019-03-13T08:32:05.991Z,99.90
2019-03-13T08:35:03.978Z,99.90
2019-03-13T08:37:58.763Z,99.90
2019-03-13T08:41:05.627Z,99.90
2019-03-13T08:43:45.261Z,99.90
2019-03-13T08:46:43.040Z,99.90
2019-03-13T08:49:30.902Z,99.90
2019-03-13T08:52:22.528Z,99.90
2019-03-13T08:55:20.035Z,99.90
2019-03-13T08:58:07.231Z,99.90
2019-03-13T09:00:42.805Z,99.90
2019-03-13T09:03:34.681Z,99.90
2019-03-13T09:06:35.789Z,99.90
2019-03-13T09:09:24.486Z,99.90
2019-03-13T09:12:07.689Z,99.90
2019-03-13T09:14:51.504Z,99.90
2019-03-13T09:17:46.298Z,99.90
2019-03-13T09:20:27.833Z,99.90
2019-03-13T09:23:14.513Z,99.90
2019-03-13T09:26:09.227Z,99.90
2019-03-13T09:29:00.824Z,99.90
2019-03-13T09:31:47.201Z,99.90
2019-03-13T09:34:41.214Z,99.90
2019-03-13T09:37:33.054Z,99.90
2019-03-13T09:40:12.066Z,99.90
2019-03-13T09:43:00.782Z,99.50
2019-03-13T09:45:40.918Z,99.90
2019-03-13T09:48:18.819Z,99.80
2019-03-13T09:51:10.871Z,99.30
2019-03-13T09:53:49.107Z,99.90
2019-03-13T09:56:36.505Z,98.90
2019-03-13T09:59:27.741Z,97.60
2019-03-13T10:02:15.100Z,97.60
2019-03-13T10:04:56.294Z,99.60
2019-03-13T10:07:36.686Z,98.10
2019-03-13T10:10:41.018Z,98.60
2019-03-13T10:13:42.009Z,99.10
2019-03-13T10:16:22.292Z,98.70
2019-03-13T10:19:37.330Z,98.30
2019-03-13T10:22:41.383Z,99.00
2019-03-13T10:25:16.723Z,99.40
2019-03-13T10:27:58.655Z,98.80
2019-03-13T10:30:47.291Z,99.10
2019-03-13T10:33:48.291Z,98.20
2019-03-13T10:36:43.457Z,98.40
2019-03-13T10:39:39.447Z,97.80
2019-03-13T10:42:30.923Z,97.50
2019-03-13T10:45:15.190Z,97.90
2019-03-13T10:47:58.298Z,98.30
2019-03-13T10:50:47.078Z,98.60
2019-03-13T10:53:34.361Z,98.20
2019-03-13T10:56:38.324Z,98.20
2019-03-13T10:59:32.394Z,98.40
2019-03-13T11:02:21.430Z,99.60
2019-03-13T11:05:00.990Z,98.60
2019-03-13T11:07:48.535Z,98.10
2019-03-13T11:10:37.893Z,97.80
2019-03-13T11:13:27.190Z,98.10
2019-03-13T11:16:15.319Z,98.00
2019-03-13T11:19:04.066Z,97.60
2019-03-13T11:21:56.322Z,98.10
2019-03-13T11:24:39.723Z,98.30
2019-03-13T11:27:28.439Z,98.70
2019-03-13T11:30:10.730Z,99.00
2019-03-13T11:32:59.657Z,99.60
2019-03-13T11:35:53.387Z,99.80
2019-03-13T11:38:48.046Z,99.90
2019-03-13T11:41:43.755Z,99.90
2019-03-13T11:44:36.267Z,99.90
2019-03-13T11:47:22.562Z,99.90
2019-03-13T11:50:23.187Z,99.90
2019-03-13T11:53:14.804Z,99.90
2019-03-13T11:56:05.297Z,99.90
2019-03-13T11:58:53.927Z,99.90
2019-03-13T12:01:46.273Z,99.90
2019-03-13T12:04:24.038Z,99.90
2019-03-13T12:07:12.903Z,99.90
2019-03-13T12:10:07.893Z,99.90
2019-03-13T12:12:57.143Z,99.90
2019-03-13T12:16:01.109Z,99.90
2019-03-13T12:18:36.570Z,99.90
2019-03-13T12:21:22.404Z,99.90
2019-03-13T12:24:19.728Z,99.90
2019-03-13T12:27:11.239Z,99.90
2019-03-13T12:30:12.548Z,99.90
2019-03-13T12:33:01.810Z,99.90
2019-03-13T12:35:45.408Z,99.90
2019-03-13T12:38:26.087Z,99.90
2019-03-13T12:41:23.732Z,99.90
2019-03-13T12:44:21.313Z,99.90
2019-03-13T12:47:13.108Z,99.90
2019-03-13T12:49:55.393Z,99.90
2019-03-13T12:52:42.758Z,99.90
2019-03-13T12:55:37.699Z,99.90
2019-03-13T12:58:21.146Z,99.90
2019-03-13T13:01:15.745Z,99.90
2019-03-13T13:04:17.350Z,99.90
2019-03-13T13:06:56.964Z,99.90
2019-03-13T13:10:00.705Z,99.90
2019-03-13T13:12:41.172Z,99.90
2019-03-13T13:15:42.263Z,99.90
2019-03-13T13:18:38.361Z,99.90
2019-03-13T13:21:08.308Z,99.90
2019-03-13T13:23:38.266Z,99.90
2019-03-13T13:26:08.422Z,99.90
2019-03-13T13:28:38.409Z,99.90
2019-03-13T13:31:08.642Z,99.90
2019-03-13T13:33:38.815Z,99.90
2019-03-13T13:36:08.992Z,99.90
2019-03-13T13:38:38.903Z,99.90
2019-03-13T13:41:08.936Z,99.90
2019-03-13T13:43:39.355Z,99.90
2019-03-13T13:46:33.172Z,99.90
2019-03-13T13:49:03.599Z,99.90
2019-03-13T13:51:33.471Z,99.90
2019-03-13T13:54:03.767Z,99.90
2019-03-13T13:56:33.644Z,99.90
2019-03-13T13:59:03.720Z,99.20
2019-03-13T14:01:34.175Z,99.90
2019-03-13T14:04:04.692Z,99.90
2019-03-13T14:06:34.877Z,99.90
2019-03-13T14:09:06.396Z,99.90
2019-03-13T14:11:36.641Z,99.90
2019-03-13T14:14:06.998Z,99.90
2019-03-13T14:16:36.806Z,99.90
2019-03-13T14:19:06.747Z,99.90
2019-03-13T14:21:36.933Z,99.90
2019-03-13T14:24:07.156Z,99.90
2019-03-13T14:26:36.982Z,99.90
2019-03-13T14:29:07.118Z,99.90
2019-03-13T14:31:37.068Z,99.90
2019-03-13T14:34:07.574Z,99.90
2019-03-13T14:36:38.476Z,99.70
2019-03-13T14:39:09.804Z,98.50
2019-03-13T14:41:39.590Z,98.40
2019-03-13T14:44:09.546Z,98.70
2019-03-13T14:46:41.120Z,97.80
2019-03-13T14:49:11.125Z,98.10
2019-03-13T14:51:41.176Z,98.90
2019-03-13T14:54:11.579Z,99.90
2019-03-13T14:56:41.483Z,99.90
2019-03-13T14:59:11.706Z,99.90
2019-03-13T15:01:42.001Z,99.90
2019-03-13T15:04:11.830Z,99.90
2019-03-13T15:06:43.109Z,99.90
2019-03-13T15:09:13.306Z,99.90
2019-03-13T15:11:43.156Z,99.90
2019-03-13T15:14:13.297Z,99.90
2019-03-13T15:16:43.531Z,99.90
2019-03-13T15:19:13.331Z,99.90
2019-03-13T15:21:43.163Z,99.90
2019-03-13T15:24:13.351Z,99.90
2019-03-13T15:26:43.181Z,99.90
2019-03-13T15:29:13.374Z,99.90
2019-03-13T15:31:43.146Z,99.90
2019-03-13T15:34:14.234Z,99.90
2019-03-13T15:36:44.342Z,99.90
2019-03-13T15:39:14.461Z,99.90
2019-03-13T15:41:44.887Z,99.90
2019-03-13T15:44:15.117Z,99.90
2019-03-13T15:46:45.414Z,99.90
2019-03-13T15:49:15.924Z,99.90
2019-03-13T15:51:45.959Z,99.90
2019-03-13T15:54:15.929Z,99.90
2019-03-13T15:56:45.902Z,99.90
2019-03-13T15:59:15.828Z,99.90
2019-03-13T16:01:46.291Z,99.90
2019-03-13T16:04:16.365Z,99.90
2019-03-13T16:06:46.674Z,99.90
2019-03-13T16:09:17.076Z,99.90
2019-03-13T16:11:46.931Z,99.90
2019-03-13T16:14:18.593Z,99.90
2019-03-13T16:16:49.007Z,99.90
2019-03-13T16:19:19.060Z,99.90
2019-03-13T16:21:49.668Z,99.90
2019-03-13T16:24:19.792Z,99.90
2019-03-13T16:26:51.236Z,99.90
2019-03-13T16:29:21.229Z,99.90
2019-03-13T16:31:51.626Z,99.90
2019-03-13T16:34:21.934Z,99.90
2019-03-13T16:36:52.068Z,99.90
2019-03-13T16:39:22.922Z,99.90
2019-03-13T16:41:52.995Z,99.90
2019-03-13T16:44:23.087Z,99.90
2019-03-13T16:46:52.975Z,99.90
2019-03-13T16:49:22.831Z,99.90
2019-03-13T16:51:53.233Z,99.90
2019-03-13T16:54:23.539Z,99.90
2019-03-13T16:56:54.483Z,99.90
2019-03-13T16:59:24.479Z,99.90
2019-03-13T17:01:54.295Z,99.90
2019-03-13T17:04:24.519Z,99.90
2019-03-13T17:06:54.750Z,99.90
2019-03-13T17:09:25.238Z,99.90
2019-03-13T17:11:55.001Z,99.90
2019-03-13T17:14:25.570Z,99.90
2019-03-13T17:16:56.897Z,99.90
2019-03-13T17:19:27.035Z,99.90
2019-03-13T17:21:57.391Z,99.90
2019-03-13T17:24:27.274Z,99.90
2019-03-13T17:26:57.499Z,99.90
2019-03-13T17:29:27.691Z,99.90
2019-03-13T17:31:58.285Z,99.90
2019-03-13T17:34:30.320Z,99.90
2019-03-13T17:37:00.530Z,99.90
2019-03-13T17:39:33.733Z,99.90
2019-03-13T17:42:02.843Z,99.90
2019-03-13T17:44:33.211Z,99.90
2019-03-13T17:47:03.316Z,99.90
2019-03-13T17:49:33.682Z,99.90
2019-03-13T17:52:04.380Z,99.90
2019-03-13T17:54:34.975Z,99.90
2019-03-13T17:57:05.019Z,99.90
2019-03-13T17:59:35.055Z,99.90
2019-03-13T18:02:05.392Z,99.90
2019-03-13T18:04:35.462Z,99.90
2019-03-13T18:07:05.794Z,99.90
2019-03-13T18:09:36.060Z,99.90
2019-03-13T18:12:06.526Z,99.90
2019-03-13T18:14:37.066Z,99.90
2019-03-13T18:17:08.603Z,99.90
2019-03-13T18:19:38.459Z,99.90
2019-03-13T18:22:08.138Z,99.90
2019-03-13T18:24:38.024Z,99.90
2019-03-13T18:27:07.778Z,99.90
2019-03-13T18:29:37.614Z,99.90
2019-03-13T18:32:08.854Z,99.90
2019-03-13T18:34:38.925Z,99.90
2019-03-13T18:37:10.808Z,99.90
2019-03-13T18:39:41.433Z,99.90
2019-03-13T18:42:12.394Z,99.90
2019-03-13T18:44:43.143Z,99.90
2019-03-13T18:47:13.129Z,99.90
2019-03-13T18:49:45.183Z,99.90
2019-03-13T18:52:15.137Z,99.90
2019-03-13T18:54:45.383Z,99.90
2019-03-13T18:57:16.456Z,99.90
2019-03-13T18:59:47.605Z,99.90
2019-03-13T19:02:18.767Z,99.90
2019-03-13T19:04:49.577Z,99.90
2019-03-13T19:07:23.813Z,99.90
2019-03-13T19:09:54.771Z,99.90
2019-03-13T19:12:26.779Z,99.90
2019-03-13T19:14:57.924Z,99.90
2019-03-13T19:17:30.668Z,99.90
2019-03-13T19:20:01.775Z,99.90
2019-03-13T19:22:32.381Z,99.90
2019-03-13T19:25:03.729Z,99.90
2019-03-13T19:27:33.947Z,99.90
2019-03-13T19:30:04.549Z,99.90
2019-03-13T19:32:36.501Z,99.90
2019-03-13T19:35:07.717Z,99.90
2019-03-13T19:37:37.947Z,99.90
2019-03-13T19:40:09.191Z,99.90
2019-03-13T19:42:39.114Z,99.90
2019-03-13T19:45:12.031Z,99.90
2019-03-13T19:47:42.705Z,99.90
2019-03-13T19:50:13.877Z,99.90
2019-03-13T19:52:47.238Z,99.90
2019-03-13T19:55:15.834Z,99.90
2019-03-13T19:57:45.940Z,99.90
2019-03-13T20:00:18.323Z,99.90
2019-03-13T20:02:59.439Z,99.90
2019-03-13T20:05:20.078Z,99.90
2019-03-13T20:07:50.579Z,99.90
2019-03-13T20:10:22.947Z,99.90
2019-03-13T20:12:53.421Z,99.90
2019-03-13T20:15:24.631Z,99.90
2019-03-13T20:17:55.451Z,99.90
2019-03-13T20:20:27.056Z,99.90
2019-03-13T20:22:58.351Z,99.90
2019-03-13T20:25:29.319Z,99.90
2019-03-13T20:28:00.840Z,99.90
2019-03-13T20:30:31.867Z,99.90
2019-03-13T20:33:07.249Z,99.90
2019-03-13T20:35:39.709Z,99.90
2019-03-13T20:38:10.043Z,99.90
2019-03-13T20:40:41.543Z,99.90
2019-03-13T20:43:14.288Z,99.90
2019-03-13T20:45:45.283Z,99.90
2019-03-13T20:48:16.728Z,99.90
2019-03-13T20:50:48.029Z,99.90
2019-03-13T20:53:19.138Z,99.90
2019-03-13T20:55:50.715Z,99.90
2019-03-13T20:58:21.850Z,99.90
2019-03-13T21:00:52.438Z,99.90
2019-03-13T21:03:23.617Z,99.90
2019-03-13T21:05:55.233Z,99.90
2019-03-13T21:08:26.751Z,99.90
2019-03-13T21:10:58.537Z,99.90
2019-03-13T21:13:29.430Z,99.90
2019-03-13T21:16:00.453Z,99.90
2019-03-13T21:18:32.570Z,99.90
2019-03-13T21:21:04.086Z,99.90
2019-03-13T21:23:34.035Z,99.90
2019-03-13T21:26:04.043Z,99.90
2019-03-13T21:28:34.867Z,99.90
2019-03-13T21:31:05.071Z,99.90
2019-03-13T21:33:35.417Z,99.90
2019-03-13T21:36:05.700Z,99.90
2019-03-13T21:38:35.852Z,99.90
2019-03-13T21:41:07.029Z,99.90
2019-03-13T21:43:37.867Z,99.90
2019-03-13T21:46:08.192Z,99.90
2019-03-13T21:48:38.580Z,99.90
2019-03-13T21:51:09.718Z,99.90
2019-03-13T21:53:40.512Z,99.90
2019-03-13T21:56:10.471Z,99.90
2019-03-13T21:58:40.984Z,99.90
2019-03-13T22:01:19.833Z,99.90
2019-03-13T22:03:47.646Z,99.90
2019-03-13T22:06:28.038Z,99.90
2019-03-13T22:08:50.528Z,99.90
2019-03-13T22:11:21.674Z,99.90
2019-03-13T22:13:52.512Z,99.90
2019-03-13T22:16:23.770Z,99.90
2019-03-13T22:18:56.713Z,99.90
2019-03-13T22:21:27.873Z,99.90
2019-03-13T22:23:59.929Z,99.90
2019-03-13T22:26:30.479Z,99.90
2019-03-13T22:29:01.446Z,99.90
2019-03-13T22:31:34.130Z,99.90
2019-03-13T22:34:05.345Z,99.90
2019-03-13T22:36:36.170Z,99.90
2019-03-13T22:39:08.495Z,99.90
2019-03-13T22:41:41.001Z,99.90
2019-03-13T22:44:11.900Z,99.90
2019-03-13T22:46:43.413Z,99.90
2019-03-13T22:49:13.315Z,99.90
2019-03-13T22:51:43.698Z,99.90
2019-03-13T22:54:13.459Z,99.90
2019-03-13T22:56:43.304Z,99.90
2019-03-13T22:59:14.636Z,99.90
2019-03-13T23:01:45.085Z,99.90
2019-03-13T23:04:15.386Z,99.90
2019-03-13T23:06:45.174Z,99.90
2019-03-13T23:09:15.197Z,99.90
2019-03-13T23:11:45.596Z,99.90
2019-03-13T23:14:16.005Z,99.90
2019-03-13T23:16:45.829Z,99.90
2019-03-13T23:19:17.654Z,99.90
2019-03-13T23:21:47.946Z,99.90
2019-03-13T23:24:17.921Z,99.90
2019-03-13T23:26:47.749Z,99.90
2019-03-13T23:29:17.678Z,99.90
2019-03-13T23:31:48.454Z,99.90
2019-03-13T23:34:18.682Z,99.90
2019-03-13T23:36:48.791Z,99.90
2019-03-13T23:39:18.732Z,99.90
2019-03-13T23:41:48.767Z,99.90
2019-03-13T23:44:19.671Z,99.90
2019-03-13T23:46:49.513Z,99.90
2019-03-13T23:49:19.879Z,99.90
2019-03-13T23:51:49.838Z,99.90
2019-03-13T23:54:20.153Z,99.90
2019-03-13T23:56:50.457Z,99.90
2019-03-13T23:59:20.398Z,99.90
